Time;durP1;ratioP1;P1;durP2;ratioP2;P2;SDS_P1;SDS_P2;PMS_P1;PMS_P2;Temp;Humidity;BMP_temperature;BMP_pressure;BME280_temperature;BME280_humidity;BME280_pressure;Samples;Min_cycle;Max_cycle;Signal;HPM_P1;HPM_P2
2022/07/20 00:02:04;;;;;;;8.50;4.70;;;;;;;24.62;88.04;101206.94;4890928;29;20639;-63
2022/07/20 00:04:31;;;;;;;6.15;5.20;;;;;;;24.58;87.18;101213.81;4879147;29;20060;-63
2022/07/20 00:06:57;;;;;;;10.40;5.00;;;;;;;24.54;88.94;101214.47;4889556;29;20493;-63
2022/07/20 00:12:09;;;;;;;8.80;5.07;;;;;;;24.44;88.98;101218.53;4891285;29;20503;-63
2022/07/20 00:14:36;;;;;;;7.88;5.03;;;;;;;24.39;89.96;101215.69;4884839;29;20057;-64
2022/07/20 00:17:02;;;;;;;9.43;5.10;;;;;;;24.35;91.78;101214.53;4886109;29;20059;-64
2022/07/20 00:19:29;;;;;;;8.52;5.07;;;;;;;24.31;91.29;101224.06;4887167;29;20055;-63
2022/07/20 00:21:55;;;;;;;6.95;5.10;;;;;;;24.23;93.06;101217.16;4885458;29;20063;-63
2022/07/20 00:24:22;;;;;;;8.27;4.47;;;;;;;24.23;91.44;101216.34;4891953;29;20076;-63
2022/07/20 00:26:48;;;;;;;10.88;5.25;;;;;;;24.19;90.70;101215.19;4883599;29;20052;-63
2022/07/20 00:29:15;;;;;;;8.02;4.50;;;;;;;24.14;91.74;101210.47;4892221;29;20049;-64
2022/07/20 00:31:41;;;;;;;9.45;4.97;;;;;;;24.11;91.44;101210.13;4877957;29;20418;-62
2022/07/20 00:34:07;;;;;;;8.15;5.28;;;;;;;24.07;89.50;101209.75;4889265;29;20157;-62
2022/07/20 00:36:34;;;;;;;7.07;4.97;;;;;;;24.01;91.00;101206.13;4892323;29;20516;-63
2022/07/20 00:39:00;;;;;;;6.30;4.63;;;;;;;23.96;89.85;101214.03;4886344;29;20075;-63
2022/07/20 00:41:27;;;;;;;10.00;5.20;;;;;;;23.86;89.87;101203.03;4893144;29;20557;-64
2022/07/20 00:44:07;;;;;;;10.20;4.57;;;;;;;23.83;90.51;101203.47;4886028;29;20044;-63
2022/07/20 00:46:38;;;;;;;6.80;5.07;;;;;;;23.80;90.53;101206.63;4891416;29;20133;-63
2022/07/20 00:49:07;;;;;;;8.88;5.07;;;;;;;23.75;91.05;101203.75;4883366;29;20149;-63
2022/07/20 00:51:35;;;;;;;7.97;4.40;;;;;;;23.71;90.44;101202.56;4895765;29;20064;-63
2022/07/20 00:54:03;;;;;;;7.82;5.03;;;;;;;23.68;91.28;101204.66;4895185;29;20056;-63
2022/07/20 00:56:30;;;;;;;8.23;4.95;;;;;;;23.66;92.77;101200.56;4888250;29;20064;-63
2022/07/20 00:58:56;;;;;;;9.20;4.78;;;;;;;23.60;91.27;101198.75;4891136;29;20072;-63
2022/07/20 01:01:23;;;;;;;9.93;4.82;;;;;;;23.56;91.68;101195.75;4886321;29;20053;-62
2022/07/20 01:03:49;;;;;;;7.82;5.00;;;;;;;23.53;91.75;101200.72;4895538;29;20067;-62
2022/07/20 01:06:16;;;;;;;8.15;5.20;;;;;;;23.46;91.87;101190.91;4887184;29;20135;-63
2022/07/20 01:08:42;;;;;;;8.65;5.30;;;;;;;23.45;91.52;101196.47;4895336;29;20067;-64
2022/07/20 01:11:09;;;;;;;8.30;4.63;;;;;;;23.41;90.84;101190.75;4890302;29;20044;-63
2022/07/20 01:13:36;;;;;;;8.75;5.00;;;;;;;23.38;91.42;101193.84;4885233;29;20056;-63
2022/07/20 01:16:02;;;;;;;8.38;5.30;;;;;;;23.36;90.95;101198.63;4894412;29;20060;-64
2022/07/20 01:18:29;;;;;;;9.63;5.03;;;;;;;23.31;90.17;101195.81;4889963;29;20143;-63
2022/07/20 01:20:59;;;;;;;6.63;4.40;;;;;;;23.28;87.09;101196.22;4895716;29;20040;-63
2022/07/20 01:23:26;;;;;;;10.90;5.05;;;;;;;23.22;90.39;101189.91;4884579;29;20519;-63
2022/07/20 01:25:53;;;;;;;6.90;4.80;;;;;;;23.18;92.51;101198.59;4890208;29;20467;-63
2022/07/20 01:28:19;;;;;;;9.40;4.90;;;;;;;23.13;89.63;101193.94;4889802;29;20056;-62
2022/07/20 01:30:46;;;;;;;7.88;4.80;;;;;;;23.09;90.41;101196.22;4888979;29;20167;-63
2022/07/20 01:33:12;;;;;;;7.95;5.07;;;;;;;23.06;89.97;101202.00;4894740;29;20064;-62
2022/07/20 01:35:39;;;;;;;8.35;4.38;;;;;;;23.03;91.91;101201.63;4889374;29;20075;-63
2022/07/20 01:38:05;;;;;;;9.05;4.90;;;;;;;23.00;91.21;101202.84;4893896;29;20059;-62
2022/07/20 01:40:32;;;;;;;8.63;4.65;;;;;;;22.96;90.90;101196.31;4880972;29;20524;-62
2022/07/20 01:42:58;;;;;;;7.70;5.40;;;;;;;22.94;91.46;101197.56;4891131;29;20056;-61
2022/07/20 01:45:25;;;;;;;7.45;5.10;;;;;;;22.92;92.14;101196.97;4895171;29;20493;-63
2022/07/20 01:47:52;;;;;;;9.07;4.70;;;;;;;22.88;92.62;101200.06;4888938;29;20063;-62
2022/07/20 01:50:18;;;;;;;8.65;4.97;;;;;;;22.86;94.33;101207.50;4894421;29;20104;-62
2022/07/20 01:52:45;;;;;;;8.80;5.38;;;;;;;22.83;93.19;101204.44;4886236;29;20053;-62
2022/07/20 01:55:11;;;;;;;7.97;5.20;;;;;;;22.79;92.92;101211.25;4887009;29;21031;-62
2022/07/20 01:57:38;;;;;;;13.88;5.35;;;;;;;22.75;92.80;101213.56;4888986;29;20060;-63
2022/07/20 02:00:07;;;;;;;6.88;4.93;;;;;;;22.71;92.53;101213.16;4895032;29;20045;-63
2022/07/20 02:02:33;;;;;;;8.00;5.45;;;;;;;22.69;93.61;101217.91;4894819;29;20056;-62
2022/07/20 02:04:59;;;;;;;8.38;5.45;;;;;;;22.66;92.54;101213.00;4887434;29;20052;-63
2022/07/20 02:07:26;;;;;;;9.68;5.10;;;;;;;22.61;93.51;101212.84;4892079;29;20066;-64
2022/07/20 02:09:52;;;;;;;6.80;5.57;;;;;;;22.59;92.51;101212.22;4866758;29;20056;-63
2022/07/20 02:12:19;;;;;;;9.10;5.43;;;;;;;22.57;93.21;101214.31;4894075;29;20072;-64
2022/07/20 02:14:45;;;;;;;10.23;5.40;;;;;;;22.55;94.67;101211.03;4889119;29;20176;-63
2022/07/20 02:17:12;;;;;;;11.02;5.22;;;;;;;22.50;95.33;101208.19;4892986;29;20524;-62
2022/07/20 02:19:38;;;;;;;13.07;5.63;;;;;;;22.50;93.88;101205.50;4894292;29;20062;-64
2022/07/20 02:22:10;;;;;;;8.95;5.30;;;;;;;22.48;95.24;101203.06;4882579;29;20294;-63
2022/07/20 02:24:37;;;;;;;9.45;4.95;;;;;;;22.44;95.53;101193.84;4894137;29;20143;-62
2022/07/20 02:27:03;;;;;;;8.07;5.22;;;;;;;22.41;94.86;101196.94;4887373;29;20049;-62
2022/07/20 02:29:30;;;;;;;12.18;5.38;;;;;;;22.38;94.77;101207.25;4893699;29;20052;-63
2022/07/20 02:31:56;;;;;;;9.10;5.30;;;;;;;22.35;95.13;101205.00;4890937;29;20520;-64
2022/07/20 02:34:23;;;;;;;9.88;5.30;;;;;;;22.35;94.57;101215.69;4888122;29;20044;-63
2022/07/20 02:36:49;;;;;;;9.95;5.53;;;;;;;22.29;94.01;101223.53;4888953;29;20056;-64
2022/07/20 02:39:15;;;;;;;8.35;4.97;;;;;;;22.24;94.19;101220.66;4887188;29;20063;-63
2022/07/20 02:41:42;;;;;;;7.38;4.63;;;;;;;22.21;93.84;101225.59;4893604;29;20140;-61
2022/07/20 02:44:08;;;;;;;11.43;5.18;;;;;;;22.19;92.56;101222.31;4886350;29;20056;-63
2022/07/20 02:46:35;;;;;;;7.07;4.70;;;;;;;22.16;90.71;101228.91;4893487;29;20059;-63
2022/07/20 02:49:01;;;;;;;8.40;4.88;;;;;;;22.14;90.24;101222.97;4888174;29;20067;-63
2022/07/20 02:51:28;;;;;;;11.55;5.60;;;;;;;22.09;91.82;101220.09;4884393;29;20747;-62
2022/07/20 02:53:54;;;;;;;8.35;5.13;;;;;;;22.04;91.19;101209.25;4892915;29;20048;-62
2022/07/20 02:56:20;;;;;;;10.77;5.43;;;;;;;22.01;92.52;101212.34;4880899;29;20502;-63
2022/07/20 02:58:53;;;;;;;10.73;5.53;;;;;;;21.97;93.05;101206.59;4893689;29;20080;-62
2022/07/20 03:01:20;;;;;;;11.40;5.15;;;;;;;21.95;93.69;101208.66;4883709;29;20501;-63
2022/07/20 03:03:46;;;;;;;11.80;5.15;;;;;;;21.95;93.84;101203.31;4887823;29;20060;-63
2022/07/20 03:06:13;;;;;;;8.13;5.30;;;;;;;21.95;93.43;101207.84;4892073;29;20104;-63
2022/07/20 03:08:39;;;;;;;10.02;5.30;;;;;;;21.89;95.96;101201.50;4888141;29;20056;-64
2022/07/20 03:11:06;;;;;;;6.28;4.68;;;;;;;21.86;97.20;101193.94;4893613;29;20060;-63
2022/07/20 03:13:32;;;;;;;10.63;4.97;;;;;;;21.86;95.04;101192.06;4886135;29;20070;-63
2022/07/20 03:15:58;;;;;;;8.65;5.47;;;;;;;21.81;95.37;101191.88;4888984;29;20060;-63
2022/07/20 03:18:25;;;;;;;8.00;5.15;;;;;;;21.78;94.95;101191.47;4883440;29;20049;-64
2022/07/20 03:20:51;;;;;;;8.48;5.10;;;;;;;21.77;96.28;101204.00;4893391;29;20132;-63
2022/07/20 03:23:18;;;;;;;7.75;4.75;;;;;;;21.75;96.38;101197.25;4893199;29;20053;-64
2022/07/20 03:25:44;;;;;;;9.85;5.32;;;;;;;21.70;97.11;101213.91;4886625;29;20136;-63
2022/07/20 03:28:11;;;;;;;10.65;5.57;;;;;;;21.66;96.58;101218.84;4891683;29;20429;-63
2022/07/20 03:30:37;;;;;;;12.35;5.47;;;;;;;21.66;94.39;101221.53;4875984;29;20425;-63
2022/07/20 03:33:03;;;;;;;7.47;5.03;;;;;;;21.67;95.16;101222.34;4888250;29;20058;-62
2022/07/20 03:35:30;;;;;;;8.35;5.03;;;;;;;21.68;94.04;101240.81;4886890;29;20442;-63
2022/07/20 03:37:56;;;;;;;8.20;5.13;;;;;;;21.68;93.14;101232.81;4893317;29;20060;-63
2022/07/20 03:40:23;;;;;;;8.07;5.18;;;;;;;21.72;91.59;101233.22;4892710;29;20056;-64
2022/07/20 03:42:49;;;;;;;8.57;4.50;;;;;;;21.71;93.82;101242.25;4887544;29;20062;-63
2022/07/20 03:45:16;;;;;;;7.80;4.60;;;;;;;21.71;91.36;101235.03;4885523;29;20052;-61
2022/07/20 03:47:44;;;;;;;10.23;5.30;;;;;;;21.75;92.03;101242.66;4885909;29;20054;-63
2022/07/20 03:50:11;;;;;;;8.82;4.93;;;;;;;21.75;92.43;101246.13;4892532;29;20049;-63
2022/07/20 03:52:37;;;;;;;6.80;4.68;;;;;;;21.72;95.07;101254.56;4887642;29;20553;-61
2022/07/20 03:55:05;;;;;;;10.02;5.03;;;;;;;21.72;93.83;101257.25;4893136;29;20564;-63
2022/07/20 03:57:31;;;;;;;10.02;4.90;;;;;;;21.70;92.73;101248.63;4889676;29;20058;-61
2022/07/20 03:59:58;;;;;;;6.00;4.90;;;;;;;21.67;95.32;101254.38;4878029;29;20720;-62
2022/07/20 04:02:24;;;;;;;8.45;4.82;;;;;;;21.66;96.45;101253.56;4892787;29;20052;-63
2022/07/20 04:04:51;;;;;;;9.07;4.95;;;;;;;21.63;92.78;101263.81;4887136;29;20060;-63
2022/07/20 04:07:17;;;;;;;12.02;5.07;;;;;;;21.65;90.10;101267.91;4893214;29;20052;-62
2022/07/20 04:09:43;;;;;;;11.30;5.63;;;;;;;21.65;94.00;101264.44;4888170;29;20822;-61
2022/07/20 04:12:18;;;;;;;10.02;4.93;;;;;;;21.67;93.31;101273.88;4888139;29;20053;-62
2022/07/20 04:14:46;;;;;;;11.32;4.85;;;;;;;21.69;91.06;101279.00;4888733;29;20067;-63
2022/07/20 04:17:12;;;;;;;;;;;;;;;21.72;87.50;101279.41;4887030;29;20067;-63
2022/07/20 04:19:39;;;;;;;11.40;6.07;;;;;;;21.76;86.55;101285.16;4897142;29;20028;-63
2022/07/20 04:22:06;;;;;;;8.18;6.00;;;;;;;21.82;86.07;101283.50;4891282;29;20053;-63
2022/07/20 04:24:33;;;;;;;15.25;6.60;;;;;;;21.84;86.16;101300.94;4897589;29;20067;-63
2022/07/20 04:26:59;;;;;;;10.45;7.15;;;;;;;21.86;87.73;101303.41;4883349;29;20049;-62
2022/07/20 04:29:26;;;;;;;10.90;7.57;;;;;;;21.89;88.58;101305.66;4895668;29;20508;-63
2022/07/20 04:31:53;;;;;;;13.70;7.28;;;;;;;21.92;88.84;101308.72;4896328;29;20049;-63
2022/07/20 04:34:19;;;;;;;11.07;8.13;;;;;;;21.94;90.27;101311.19;4888559;29;20053;-63
2022/07/20 04:36:46;;;;;;;17.15;9.30;;;;;;;21.97;92.42;101315.28;4896772;29;20573;-62
2022/07/20 04:39:13;;;;;;;14.25;9.40;;;;;;;21.96;94.48;101314.47;4886017;29;20060;-62
2022/07/20 04:41:40;;;;;;;15.10;10.40;;;;;;;22.01;97.46;101330.69;4892492;29;20060;-62
2022/07/20 04:44:06;;;;;;;25.83;12.63;;;;;;;22.05;100.00;101339.94;4890476;29;20075;-63
2022/07/20 04:46:33;;;;;;;19.35;12.13;;;;;;;22.08;100.00;101342.16;4896538;29;20060;-63
2022/07/20 04:49:00;;;;;;;22.80;13.20;;;;;;;22.06;100.00;101351.44;4897160;29;20064;-63
2022/07/20 04:51:26;;;;;;;27.33;15.40;;;;;;;22.11;100.00;101349.78;4890867;29;20052;-63
2022/07/20 04:53:53;;;;;;;21.92;15.82;;;;;;;22.14;100.00;101356.53;4892640;29;20139;-61
2022/07/20 04:56:19;;;;;;;27.10;16.65;;;;;;;22.16;100.00;101356.34;4886395;29;20573;-62
2022/07/20 04:58:50;;;;;;;26.13;16.05;;;;;;;22.20;100.00;101361.03;4896917;29;20136;-63
2022/07/20 05:01:17;;;;;;;29.90;17.45;;;;;;;22.21;100.00;101368.03;4890188;29;20557;-61
2022/07/20 05:03:44;;;;;;;24.73;16.98;;;;;;;22.24;100.00;101370.31;4896516;29;20056;-62
2022/07/20 05:06:11;;;;;;;26.95;17.05;;;;;;;22.27;100.00;101364.56;4895425;29;20549;-62
2022/07/20 05:08:38;;;;;;;29.75;18.30;;;;;;;22.30;100.00;101361.44;4884137;29;20734;-62
2022/07/20 05:11:04;;;;;;;33.30;19.85;;;;;;;22.36;100.00;101362.44;4878039;29;20052;-62
2022/07/20 05:13:36;;;;;;;32.65;19.50;;;;;;;22.39;100.00;101364.72;4889963;29;20075;-63
2022/07/20 05:16:03;;;;;;;31.55;21.05;;;;;;;22.44;100.00;101367.59;4895642;29;20069;-62
2022/07/20 05:18:30;;;;;;;30.00;22.27;;;;;;;22.49;100.00;101369.59;4892914;29;20533;-62
2022/07/20 05:20:57;;;;;;;36.10;24.55;;;;;;;22.51;100.00;101376.38;4883252;29;20052;-62
2022/07/20 05:23:24;;;;;;;41.20;24.95;;;;;;;22.53;100.00;101372.69;4890900;29;20661;-63
2022/07/20 05:25:52;;;;;;;36.08;23.77;;;;;;;22.55;100.00;101373.28;4889515;29;20077;-63
2022/07/20 05:28:20;;;;;;;39.38;24.35;;;;;;;22.58;100.00;101375.53;4894993;29;20512;-62
2022/07/20 05:30:47;;;;;;;;;;;;;;;22.65;100.00;101387.00;4888775;29;20087;-63
2022/07/20 05:33:14;;;;;;;40.00;27.60;;;;;;;22.66;100.00;101383.31;4895450;29;20395;-62
2022/07/20 05:35:40;;;;;;;40.53;27.77;;;;;;;22.73;100.00;101397.47;4886107;29;20056;-63
2022/07/20 05:38:07;;;;;;;40.72;28.88;;;;;;;22.79;100.00;101399.28;4891129;29;20422;-62
2022/07/20 05:40:33;;;;;;;40.25;28.15;;;;;;;22.86;100.00;101399.25;4895517;29;20048;-62
2022/07/20 05:43:00;;;;;;;37.22;28.30;;;;;;;22.88;100.00;101387.31;4889188;29;20060;-64
2022/07/20 05:45:26;;;;;;;40.88;26.98;;;;;;;22.96;100.00;101383.56;4894954;29;20056;-64
2022/07/20 05:47:53;;;;;;;36.08;27.42;;;;;;;23.06;100.00;101385.78;4885005;29;20091;-62
2022/07/20 05:50:19;;;;;;;42.92;29.75;;;;;;;23.07;100.00;101384.75;4892299;29;20560;-64
2022/07/20 05:52:45;;;;;;;40.22;29.02;;;;;;;23.15;100.00;101383.66;4895491;29;20060;-63
2022/07/20 05:55:12;;;;;;;44.17;31.85;;;;;;;23.12;100.00;101381.44;4888984;29;20067;-63
2022/07/20 05:57:38;;;;;;;45.20;32.25;;;;;;;23.18;100.00;101381.38;4894725;29;20462;-64
2022/07/20 06:00:07;;;;;;;46.75;31.48;;;;;;;23.21;100.00;101389.00;4887223;29;20052;-64
2022/07/20 06:02:33;;;;;;;40.53;32.28;;;;;;;23.24;100.00;101399.25;4887670;29;20413;-64
2022/07/20 06:05:00;;;;;;;42.13;30.77;;;;;;;23.25;100.00;101398.22;4888666;29;20052;-62
2022/07/20 06:07:26;;;;;;;42.42;29.27;;;;;;;23.32;100.00;101394.69;4894904;29;20079;-63
2022/07/20 06:09:53;;;;;;;46.35;34.13;;;;;;;23.26;100.00;101404.38;4894852;29;20057;-63
2022/07/20 06:12:19;;;;;;;45.88;31.13;;;;;;;23.36;100.00;101403.91;4891021;29;20391;-64
2022/07/20 06:14:45;;;;;;;48.20;32.88;;;;;;;23.39;100.00;101417.69;4890566;29;20067;-64
2022/07/20 06:17:12;;;;;;;41.63;30.20;;;;;;;23.45;100.00;101421.34;4883693;29;20061;-64
2022/07/20 06:19:39;;;;;;;45.40;31.10;;;;;;;23.51;100.00;101430.38;4894937;29;20171;-64
2022/07/20 06:22:05;;;;;;;46.72;30.45;;;;;;;23.61;100.00;101439.53;4888927;29;20056;-64
2022/07/20 06:24:31;;;;;;;44.95;31.17;;;;;;;23.65;100.00;101447.97;4894413;29;20063;-63
2022/07/20 06:26:58;;;;;;;43.47;31.92;;;;;;;23.67;100.00;101453.94;4894059;29;20048;-64
2022/07/20 06:29:25;;;;;;;48.28;31.50;;;;;;;23.76;100.00;101470.56;4882778;29;20139;-64
2022/07/20 06:31:51;;;;;;;46.95;32.25;;;;;;;23.80;100.00;101475.28;4887790;29;20060;-63
2022/07/20 06:34:38;;;;;;;50.80;31.75;;;;;;;23.84;100.00;101478.34;4887396;29;20048;-63
2022/07/20 06:37:04;;;;;;;39.28;29.92;;;;;;;23.90;100.00;101476.66;4894684;29;20049;-64
2022/07/20 06:39:31;;;;;;;43.60;30.42;;;;;;;23.93;100.00;101492.28;4887984;29;20067;-63
2022/07/20 06:41:57;;;;;;;42.13;30.48;;;;;;;23.96;100.00;101495.34;4888522;29;20049;-63
2022/07/20 06:44:24;;;;;;;43.67;29.75;;;;;;;24.02;100.00;101504.38;4889079;29;20058;-63
2022/07/20 06:46:50;;;;;;;46.90;29.58;;;;;;;24.06;100.00;101497.53;4887896;29;20063;-63
2022/07/20 06:49:24;;;;;;;41.33;29.48;;;;;;;24.11;100.00;101503.06;4894268;29;20072;-64
2022/07/20 06:51:51;;;;;;;38.10;28.13;;;;;;;24.20;100.00;101508.94;4887591;29;20052;-64
2022/07/20 06:54:18;;;;;;;36.95;26.77;;;;;;;24.16;100.00;101524.66;4892711;29;20056;-64
2022/07/20 06:56:44;;;;;;;38.10;25.08;;;;;;;24.28;100.00;101522.88;4883550;29;20493;-63
2022/07/20 06:59:11;;;;;;;35.05;25.58;;;;;;;24.36;100.00;101531.69;4890463;29;20482;-63
2022/07/20 07:01:37;;;;;;;33.83;23.98;;;;;;;24.37;100.00;101539.50;4893610;29;20044;-63
2022/07/20 07:04:04;;;;;;;34.97;22.45;;;;;;;24.51;100.00;101539.41;4888513;29;20153;-63
2022/07/20 07:06:33;;;;;;;33.95;22.45;;;;;;;24.55;100.00;101544.09;4893948;29;20086;-63
2022/07/20 07:09:00;;;;;;;32.88;21.75;;;;;;;24.58;100.00;101546.34;4884675;29;20083;-64
2022/07/20 07:11:26;;;;;;;29.17;21.90;;;;;;;24.65;100.00;101551.63;4888294;29;20112;-64
2022/07/20 07:13:53;;;;;;;32.95;21.73;;;;;;;24.74;100.00;101539.59;4888494;29;20469;-63
2022/07/20 07:16:20;;;;;;;29.13;20.75;;;;;;;24.83;100.00;101556.19;4892243;29;20057;-64
2022/07/20 07:18:46;;;;;;;29.52;20.13;;;;;;;24.88;100.00;101561.72;4893720;29;20068;-64
2022/07/20 07:21:13;;;;;;;26.35;19.38;;;;;;;24.94;100.00;101584.16;4886657;29;20053;-64
2022/07/20 07:23:40;;;;;;;27.30;18.95;;;;;;;24.91;100.00;101593.44;4889509;29;20478;-64
2022/07/20 07:26:06;;;;;;;27.00;19.42;;;;;;;24.97;100.00;101589.91;4879735;29;20080;-64
2022/07/20 07:28:33;;;;;;;29.00;18.33;;;;;;;25.04;100.00;101595.19;4892265;29;20067;-64
2022/07/20 07:30:59;;;;;;;29.73;18.08;;;;;;;24.96;100.00;101600.84;4890769;29;20068;-63
2022/07/20 07:33:26;;;;;;;23.70;17.85;;;;;;;24.93;100.00;101591.34;4890388;29;20055;-64
2022/07/20 07:35:53;;;;;;;25.02;17.60;;;;;;;24.98;100.00;101604.94;4892609;29;20108;-62
2022/07/20 07:38:20;;;;;;;22.37;17.63;;;;;;;25.00;100.00;101608.22;4882271;29;20060;-64
2022/07/20 07:40:47;;;;;;;28.10;17.33;;;;;;;25.00;100.00;101620.81;4892318;29;20309;-63
2022/07/20 07:43:14;;;;;;;24.85;17.42;;;;;;;24.99;100.00;101616.50;4885742;29;20771;-64
2022/07/20 07:45:41;;;;;;;28.33;17.15;;;;;;;24.97;100.00;101613.22;4893128;29;20052;-64
2022/07/20 07:48:10;;;;;;;26.90;15.98;;;;;;;24.93;100.00;101628.13;4892882;29;20489;-64
2022/07/20 07:50:38;;;;;;;23.60;16.10;;;;;;;25.01;100.00;101633.19;4882441;29;20060;-63
2022/07/20 07:53:07;;;;;;;23.38;16.23;;;;;;;25.02;100.00;101635.66;4887590;29;20053;-64
2022/07/20 07:55:35;;;;;;;25.23;15.52;;;;;;;25.06;100.00;101639.53;4885584;29;20052;-64
2022/07/20 07:58:02;;;;;;;22.85;14.98;;;;;;;25.15;100.00;101647.28;4893200;29;20136;-64
2022/07/20 08:00:32;;;;;;;25.13;14.75;;;;;;;25.24;100.00;101652.16;4887909;29;20057;-65
2022/07/20 08:02:59;;;;;;;25.15;14.63;;;;;;;25.26;99.84;101647.38;4892525;29;20052;-63
2022/07/20 08:05:26;;;;;;;19.35;13.88;;;;;;;25.29;97.41;101642.63;4883498;29;20502;-63
2022/07/20 08:07:52;;;;;;;24.33;14.82;;;;;;;25.29;97.21;101654.19;4886315;29;20053;-63
2022/07/20 08:10:19;;;;;;;20.13;13.88;;;;;;;25.34;96.06;101643.56;4892907;29;20136;-63
2022/07/20 08:12:46;;;;;;;22.08;14.73;;;;;;;25.42;96.72;101651.34;4885767;29;20079;-63
2022/07/20 08:15:13;;;;;;;23.38;13.73;;;;;;;25.41;97.56;101652.38;4892444;29;20056;-63
2022/07/20 08:17:44;;;;;;;28.13;14.05;;;;;;;25.49;96.37;101656.63;4884230;29;20060;-62
2022/07/20 08:20:10;;;;;;;22.52;13.63;;;;;;;25.51;96.32;101662.59;4886414;29;20444;-65
2022/07/20 08:22:37;;;;;;;21.00;14.48;;;;;;;25.55;96.28;101669.16;4892020;29;20498;-64
2022/07/20 08:25:04;;;;;;;25.23;12.38;;;;;;;25.56;96.80;101668.13;4882883;29;20064;-64
2022/07/20 08:27:30;;;;;;;19.37;12.27;;;;;;;25.63;96.36;101676.09;4892329;29;20068;-63
2022/07/20 08:30:00;;;;;;;20.83;12.45;;;;;;;25.71;97.31;101672.28;4885500;29;20052;-64
2022/07/20 08:32:26;;;;;;;20.15;11.82;;;;;;;25.73;96.65;101670.19;4888068;29;20572;-64
2022/07/20 08:34:53;;;;;;;18.90;11.90;;;;;;;25.89;96.52;101660.66;4880134;29;20052;-64
2022/07/20 08:37:20;;;;;;;23.65;11.95;;;;;;;26.19;95.57;101653.41;4891738;29;20715;-64
2022/07/20 08:39:46;;;;;;;19.02;11.55;;;;;;;26.28;93.50;101661.16;4892382;29;20141;-64
2022/07/20 08:42:14;;;;;;;26.55;12.18;;;;;;;26.50;93.56;101656.03;4884123;29;20055;-61
2022/07/20 08:44:44;;;;;;;23.33;13.57;;;;;;;26.48;88.84;101645.50;4891922;29;20610;-63
2022/07/20 08:47:12;;;;;;;16.60;12.52;;;;;;;26.68;89.18;101649.75;4879488;29;20378;-64
2022/07/20 08:49:45;;;;;;;21.08;12.63;;;;;;;26.98;88.83;101655.00;4887204;29;20049;-64
2022/07/20 08:52:12;;;;;;;20.70;13.00;;;;;;;27.13;88.25;101667.97;4883751;29;20060;-64
2022/07/20 08:54:39;;;;;;;21.70;12.20;;;;;;;27.36;87.81;101672.53;4891792;29;20053;-63
2022/07/20 08:57:15;;;;;;;19.13;12.07;;;;;;;27.61;85.85;101661.44;4892102;29;20063;-63
2022/07/20 08:59:46;;;;;;;16.10;10.50;;;;;;;27.85;84.08;101664.03;4882186;29;20052;-63
2022/07/20 09:02:15;;;;;;;20.40;11.20;;;;;;;28.07;82.02;101656.94;4881381;29;20084;-62
2022/07/20 09:05:01;;;;;;;21.52;11.20;;;;;;;28.18;79.40;101660.59;4888252;29;20087;-64
2022/07/20 09:07:42;;;;;;;19.23;11.32;;;;;;;28.34;79.64;101658.97;4895236;29;20132;-64
2022/07/20 09:10:14;;;;;;;17.50;10.27;;;;;;;28.65;80.41;101654.06;4888223;29;20054;-64
2022/07/20 09:12:57;;;;;;;18.98;10.50;;;;;;;28.83;77.34;101645.69;4894419;29;20048;-64
2022/07/20 09:15:35;;;;;;;17.08;10.32;;;;;;;28.83;76.84;101669.19;4882948;29;20051;-63
2022/07/20 09:18:40;;;;;;;16.77;10.25;;;;;;;28.90;76.99;101662.53;4894614;29;20052;-64
2022/07/20 09:21:07;;;;;;;11.77;9.35;;;;;;;29.32;78.52;101659.31;4888547;29;20741;-64
2022/07/20 09:23:44;;;;;;;13.98;9.88;;;;;;;29.44;75.17;101661.91;4895205;29;20482;-64
2022/07/20 09:26:11;;;;;;;14.30;9.25;;;;;;;29.61;72.77;101663.69;4888363;29;20053;-64
2022/07/20 09:28:43;;;;;;;15.88;9.80;;;;;;;29.81;72.79;101647.69;4887541;29;20066;-63
2022/07/20 09:31:13;;;;;;;17.60;9.98;;;;;;;29.95;71.03;101648.94;4893462;29;20056;-62
2022/07/20 09:33:46;;;;;;;16.23;9.80;;;;;;;29.77;71.30;101643.88;4888558;29;20055;-63
2022/07/20 09:36:14;;;;;;;15.85;9.90;;;;;;;29.77;71.37;101636.59;4893791;29;20062;-63
2022/07/20 09:38:41;;;;;;;16.35;9.98;;;;;;;29.75;70.46;101646.03;4888131;29;20057;-63
2022/07/20 09:41:31;;;;;;;15.73;9.75;;;;;;;29.72;67.54;101665.47;4889826;29;20052;-62
2022/07/20 09:43:59;;;;;;;12.20;8.85;;;;;;;29.84;67.32;101668.03;4883841;29;20478;-62
2022/07/20 09:46:31;;;;;;;13.02;9.15;;;;;;;30.15;66.26;101661.00;4894131;29;20064;-62
2022/07/20 09:48:59;;;;;;;14.75;9.18;;;;;;;30.28;67.11;101682.22;4877969;29;20053;-64
2022/07/20 09:51:32;;;;;;;13.10;8.93;;;;;;;30.34;69.78;101702.03;4893881;29;20056;-65
2022/07/20 09:54:03;;;;;;;16.90;8.93;;;;;;;30.33;68.92;101698.53;4893909;29;20045;-64
2022/07/20 09:56:31;;;;;;;13.98;8.40;;;;;;;30.22;69.61;101713.00;4881204;29;20049;-64
2022/07/20 09:58:59;;;;;;;14.82;9.73;;;;;;;30.00;70.90;101712.28;4892053;29;20056;-64
2022/07/20 10:01:29;;;;;;;16.50;9.43;;;;;;;30.23;71.04;101695.72;4886644;29;20067;-65
2022/07/20 10:04:03;;;;;;;18.20;9.60;;;;;;;30.08;70.47;101707.19;4894434;29;20052;-65
2022/07/20 10:06:30;;;;;;;12.45;9.68;;;;;;;29.73;71.23;101707.66;4878358;29;20048;-64
2022/07/20 10:09:00;;;;;;;16.73;9.60;;;;;;;29.85;71.19;101700.19;4890330;29;20783;-64
2022/07/20 10:11:26;;;;;;;16.40;10.27;;;;;;;29.89;71.66;101687.84;4889843;29;20063;-64
2022/07/20 10:13:54;;;;;;;19.05;9.82;;;;;;;29.95;72.66;101684.09;4887367;29;20056;-65
2022/07/20 10:16:37;;;;;;;15.50;9.90;;;;;;;30.11;70.59;101682.34;4890666;29;20052;-64
2022/07/20 10:19:08;;;;;;;18.65;9.85;;;;;;;30.38;70.93;101669.88;4887169;29;20100;-63
2022/07/20 10:21:39;;;;;;;16.40;9.15;;;;;;;30.88;72.39;101663.16;4894114;29;20053;-63
2022/07/20 10:24:27;;;;;;;18.50;10.25;;;;;;;31.08;70.15;101666.00;4880942;29;20510;-64
2022/07/20 10:27:03;;;;;;;16.23;9.93;;;;;;;31.33;69.18;101678.84;4892421;29;20040;-63
2022/07/20 10:29:29;;;;;;;14.55;9.25;;;;;;;31.20;67.66;101687.44;4887503;29;20083;-64
2022/07/20 10:31:59;;;;;;;13.43;8.82;;;;;;;31.10;67.30;101711.78;4893482;29;20055;-64
2022/07/20 10:34:31;;;;;;;13.23;9.35;;;;;;;30.96;68.39;101711.44;4890377;29;20056;-64
2022/07/20 10:37:23;;;;;;;15.05;9.80;;;;;;;30.86;68.41;101733.03;4888925;29;20067;-64
2022/07/20 10:39:57;;;;;;;13.15;9.45;;;;;;;30.87;68.58;101754.44;4877682;29;20429;-64
2022/07/20 10:42:28;;;;;;;13.98;9.02;;;;;;;30.93;69.13;101758.00;4885995;29;20063;-64
2022/07/20 10:45:14;;;;;;;16.08;9.52;;;;;;;30.84;67.94;101762.28;4894110;29;20547;-64
2022/07/20 10:47:44;;;;;;;12.60;8.82;;;;;;;31.17;67.86;101734.06;4883853;29;20060;-65
2022/07/20 10:50:32;;;;;;;13.43;9.40;;;;;;;31.38;67.25;101732.25;4889346;29;20372;-64
2022/07/20 10:53:21;;;;;;;13.02;8.30;;;;;;;31.59;67.86;101730.47;4883221;29;20056;-62
2022/07/20 10:55:58;;;;;;;15.05;9.73;;;;;;;31.63;66.96;101736.97;4889643;29;20068;-64
2022/07/20 10:58:31;;;;;;;15.73;8.93;;;;;;;31.83;65.07;101735.41;4886026;29;20096;-64
2022/07/20 11:01:01;;;;;;;11.38;8.65;;;;;;;31.63;64.36;101730.75;4893313;29;20055;-64
2022/07/20 11:03:32;;;;;;;14.18;8.23;;;;;;;31.75;63.69;101728.59;4887002;29;20072;-63
2022/07/20 11:06:20;;;;;;;12.57;7.93;;;;;;;31.45;63.40;101718.47;4886000;29;20067;-63
2022/07/20 11:08:58;;;;;;;13.82;7.88;;;;;;;31.68;63.40;101728.88;4889598;29;20060;-64
2022/07/20 11:11:28;;;;;;;16.10;8.55;;;;;;;31.45;63.42;101708.47;4891681;29;20079;-64
2022/07/20 11:13:55;;;;;;;12.80;7.85;;;;;;;31.18;62.56;101711.28;4893062;29;20049;-64
2022/07/20 11:16:26;;;;;;;13.18;8.18;;;;;;;31.27;63.37;101714.31;4886277;29;20054;-64
2022/07/20 11:18:54;;;;;;;9.65;5.97;;;;;;;31.14;61.57;101715.59;4888349;29;20058;-63
2022/07/20 11:21:51;;;;;;;10.88;6.28;;;;;;;31.37;61.18;101718.97;4864993;29;20052;-64
2022/07/20 11:24:27;;;;;;;8.68;6.20;;;;;;;31.38;60.06;101707.03;4873879;29;20057;-64